Map

Track Data

SID SEASON NUMBER BASIN SUBBASIN NAME ISO_TIME NATURE LAT LON WMO_WIND WMO_PRES WMO_AGENCY TRACK_TYPE DIST2LAND LANDFALL IFLAG USA_AGENCY USA_ATCF_ID USA_LAT USA_LON USA_RECORD USA_STATUS USA_WIND USA_PRES USA_SSHS USA_R34_NE USA_R34_SE USA_R34_SW USA_R34_NW USA_R50_NE USA_R50_SE USA_R50_SW USA_R50_NW USA_R64_NE USA_R64_SE USA_R64_SW USA_R64_NW USA_POCI USA_ROCI USA_RMW USA_EYE TOKYO_LAT TOKYO_LON TOKYO_GRADE TOKYO_WIND TOKYO_PRES TOKYO_R50_DIR TOKYO_R50_LONG TOKYO_R50_SHORT TOKYO_R30_DIR TOKYO_R30_LONG TOKYO_R30_SHORT TOKYO_LAND CMA_LAT CMA_LON CMA_CAT CMA_WIND CMA_PRES HKO_LAT HKO_LON HKO_CAT HKO_WIND HKO_PRES NEWDELHI_LAT NEWDELHI_LON NEWDELHI_GRADE NEWDELHI_WIND NEWDELHI_PRES NEWDELHI_CI NEWDELHI_DP NEWDELHI_POCI REUNION_LAT REUNION_LON REUNION_TYPE REUNION_WIND REUNION_PRES REUNION_TNUM REUNION_CI REUNION_RMW REUNION_R34_NE REUNION_R34_SE REUNION_R34_SW REUNION_R34_NW REUNION_R50_NE REUNION_R50_SE REUNION_R50_SW REUNION_R50_NW REUNION_R64_NE REUNION_R64_SE REUNION_R64_SW REUNION_R64_NW BOM_LAT BOM_LON BOM_TYPE BOM_WIND BOM_PRES BOM_TNUM BOM_CI BOM_RMW BOM_R34_NE BOM_R34_SE BOM_R34_SW BOM_R34_NW BOM_R50_NE BOM_R50_SE BOM_R50_SW BOM_R50_NW BOM_R64_NE BOM_R64_SE BOM_R64_SW BOM_R64_NW BOM_ROCI BOM_POCI BOM_EYE BOM_POS_METHOD BOM_PRES_METHOD NADI_LAT NADI_LON NADI_CAT NADI_WIND NADI_PRES WELLINGTON_LAT WELLINGTON_LON WELLINGTON_WIND WELLINGTON_PRES DS824_LAT DS824_LON DS824_STAGE DS824_WIND DS824_PRES TD9636_LAT TD9636_LON TD9636_STAGE TD9636_WIND TD9636_PRES TD9635_LAT TD9635_LON TD9635_WIND TD9635_PRES TD9635_ROCI NEUMANN_LAT NEUMANN_LON NEUMANN_CLASS NEUMANN_WIND NEUMANN_PRES MLC_LAT MLC_LON MLC_CLASS MLC_WIND MLC_PRES USA_GUST BOM_GUST BOM_GUST_PER REUNION_GUST REUNION_GUST_PER USA_SEAHGT USA_SEARAD_NE USA_SEARAD_SE USA_SEARAD_SW USA_SEARAD_NW STORM_SPEED STORM_DIR
1904081S13420 1904 6 SI MM NOT_NAMED 1904-03-20 18:00:00 NR -13.3000 59.5000 main 784 771 __________O___ -1 -13.3000 59.5000 7 3 213
1904081S13420 1904 6 SI MM NOT_NAMED 1904-03-20 21:00:00 NR -13.4047 59.4266 main 771 757 __________P___ -1 -13.4047 59.4266 7 3 215
1904081S13420 1904 6 SI MM NOT_NAMED 1904-03-21 00:00:00 NR -13.5175 59.3425 main 757 744 __________P___ -1 -13.5175 59.3425 7 3 217
1904081S13420 1904 6 SI MM NOT_NAMED 1904-03-21 03:00:00 NR -13.6466 59.2372 main 744 720 __________P___ -1 -13.6466 59.2372 7 4 220
1904081S13420 1904 6 SI MM NOT_NAMED 1904-03-21 06:00:00 NR -13.8000 59.1000 main 720 694 __________O___ -1 -13.8000 59.1000 7 5 222
1904081S13420 1904 6 SI MM NOT_NAMED 1904-03-21 09:00:00 NR -13.9840 58.9230 main 694 668 __________P___ -1 -13.9840 58.9230 7 6 224
1904081S13420 1904 6 SI MM NOT_NAMED 1904-03-21 12:00:00 NR -14.1975 58.7098 main 668 643 __________P___ -1 -14.1975 58.7098 7 6 224
1904081S13420 1904 6 SI MM NOT_NAMED 1904-03-21 15:00:00 NR -14.4371 58.4667 main 643 606 __________P___ -1 -14.4371 58.4667 7 7 224
1904081S13420 1904 6 SI MM NOT_NAMED 1904-03-21 18:00:00 NR -14.7000 58.2000 main 606 582 __________O___ -1 -14.7000 58.2000 7 8 226
1904081S13420 1904 6 SI MM NOT_NAMED 1904-03-21 21:00:00 NR -14.9624 57.9013 main 571 548 __________P___ -1 -14.9624 57.9013 7 8 227
1904081S13420 1904 6 SI MM NOT_NAMED 1904-03-22 00:00:00 NR -15.2478 57.5851 main 548 514 __________P___ -1 -15.2478 57.5851 7 9 225
1904081S13420 1904 6 SI MM NOT_NAMED 1904-03-22 03:00:00 NR -15.5593 57.2763 main 503 472 __________P___ -1 -15.5593 57.2763 7 9 221
1904081S13420 1904 6 SI MM NOT_NAMED 1904-03-22 06:00:00 NR -15.9000 57.0000 main 472 442 __________O___ -1 -15.9000 57.0000 7 8 214
1904081S13420 1904 6 SI MM NOT_NAMED 1904-03-22 09:00:00 NR -16.2589 56.7846 main 431 402 __________P___ -1 -16.2589 56.7846 7 8 207
1904081S13420 1904 6 SI MM NOT_NAMED 1904-03-22 12:00:00 NR -16.6473 56.6045 main 402 362 __________P___ -1 -16.6473 56.6045 7 9 202
1904081S13420 1904 6 SI MM NOT_NAMED 1904-03-22 15:00:00 NR -17.0621 56.4471 main 355 317 __________P___ -1 -17.0621 56.4471 7 9 199
1904081S13420 1904 6 SI MM NOT_NAMED 1904-03-22 18:00:00 NR -17.5000 56.3000 main 317 281 __________O___ -1 -17.5000 56.3000 7 10 199
1904081S13420 1904 6 SI MM NOT_NAMED 1904-03-22 21:00:00 NR -17.9575 56.1227 main 277 246 __________P___ -1 -17.9575 56.1227 7 10 199
1904081S13420 1904 6 SI MM NOT_NAMED 1904-03-23 00:00:00 NR -18.4350 55.9554 main 246 222 __________P___ -1 -18.4350 55.9554 7 10 197
1904081S13420 1904 6 SI MM NOT_NAMED 1904-03-23 03:00:00 NR -18.9200 55.8103 main 223 178 __________P___ -1 -18.9200 55.8103 7 10 194
1904081S13420 1904 6 SI MM NOT_NAMED 1904-03-23 06:00:00 NR -19.4000 55.7000 main 178 134 __________O___ -1 -19.4000 55.7000 7 10 190
1904081S13420 1904 6 SI MM NOT_NAMED 1904-03-23 09:00:00 NR -19.8571 55.6345 main 123 78 __________P___ -1 -19.8571 55.6345 7 9 186
1904081S13420 1904 6 SI MM NOT_NAMED 1904-03-23 12:00:00 NR -20.3074 55.6044 main 78 33 __________P___ -1 -20.3074 55.6044 7 9 183
1904081S13420 1904 6 SI MM NOT_NAMED 1904-03-23 15:00:00 NR -20.7540 55.5972 main 22 0 __________P___ -1 -20.7540 55.5972 7 9 180
1904081S13420 1904 6 SI MM NOT_NAMED 1904-03-23 18:00:00 NR -21.2000 55.6000 main 0 0 __________O___ -1 -21.2000 55.6000 7 9 182
1904081S13420 1904 6 SI MM NOT_NAMED 1904-03-23 21:00:00 NR -21.6419 55.5848 main 22 22 __________P___ -1 -21.6419 55.5848 7 9 0
1904081S13420 1904 6 SI MM NOT_NAMED 1904-03-24 00:00:00 NR -22.0850 55.5777 main 78 78 __________P___ -1 -22.0850 55.5777 7 9 0
1904081S13420 1904 6 SI MM NOT_NAMED 1904-03-24 03:00:00 NR -22.5356 55.5817 main 122 122 __________P___ -1 -22.5356 55.5817 7 9 179
1904081S13420 1904 6 SI MM NOT_NAMED 1904-03-24 06:00:00 NR -23.0000 55.6000 main 178 178 __________O___ -1 -23.0000 55.6000 7 10 178
1904081S13420 1904 6 SI MM NOT_NAMED 1904-03-24 09:00:00 NR -23.4937 55.6236 main 234 234 __________P___ -1 -23.4937 55.6236 7 10 177
1904081S13420 1904 6 SI MM NOT_NAMED 1904-03-24 12:00:00 NR -23.9999 55.6628 main 290 290 __________P___ -1 -23.9999 55.6628 7 10 175
1904081S13420 1904 6 SI MM NOT_NAMED 1904-03-24 15:00:00 NR -24.5062 55.7206 main 346 346 __________P___ -1 -24.5062 55.7206 7 10 173
1904081S13420 1904 6 SI MM NOT_NAMED 1904-03-24 18:00:00 NR -25.0000 55.8000 main 402 402 __________O___ -1 -25.0000 55.8000 7 10 170
1904081S13420 1904 6 SI MM NOT_NAMED 1904-03-24 21:00:00 NR -25.4719 55.9026 main 459 459 __________P___ -1 -25.4719 55.9026 7 10 168
1904081S13420 1904 6 SI MM NOT_NAMED 1904-03-25 00:00:00 NR -25.9251 56.0240 main 504 504 __________P___ -1 -25.9251 56.0240 7 9 166
1904081S13420 1904 6 SI MM NOT_NAMED 1904-03-25 03:00:00 NR -26.3657 56.1585 main 562 562 __________P___ -1 -26.3657 56.1585 7 9 164
1904081S13420 1904 6 SI MM NOT_NAMED 1904-03-25 06:00:00 NR -26.8000 56.3000 main 607 __________O___ -1 -26.8000 56.3000 7 9 164

About IBTrACS Database

This database is a web-friendly format of International Best Track Archive for Climate Stewardship (IBTrACS), a global best track data archive curated by NOAA dating back to 1842.

Updated: 2021-10-21